createdAt,value
2022-12-25T00:02:01.673Z,7.47
2022-12-25T00:04:29.401Z,7.49
2022-12-25T00:06:59.480Z,7.50
2022-12-25T00:09:27.595Z,7.52
2022-12-25T00:11:55.585Z,7.52
2022-12-25T00:14:23.475Z,7.54
2022-12-25T00:16:51.381Z,7.56
2022-12-25T00:19:19.226Z,7.57
2022-12-25T00:21:47.063Z,7.59
2022-12-25T00:24:16.180Z,7.58
2022-12-25T00:26:43.980Z,7.56
2022-12-25T00:29:14.496Z,7.55
2022-12-25T00:31:42.249Z,7.58
2022-12-25T00:34:10.139Z,7.57
2022-12-25T00:36:41.870Z,7.55
2022-12-25T00:39:10.729Z,7.55
2022-12-25T00:41:57.208Z,7.55
2022-12-25T00:44:25.067Z,7.52
2022-12-25T00:46:53.053Z,7.53
2022-12-25T00:49:23.592Z,7.55
2022-12-25T00:51:51.759Z,7.54
2022-12-25T00:54:20.184Z,7.54
2022-12-25T00:56:49.283Z,7.53
2022-12-25T00:59:17.150Z,7.48
2022-12-25T01:01:45.174Z,7.47
2022-12-25T01:04:13.556Z,7.46
2022-12-25T01:06:41.633Z,7.46
2022-12-25T01:09:27.383Z,7.45
2022-12-25T01:11:56.482Z,7.48
2022-12-25T01:14:24.210Z,7.48
2022-12-25T01:16:52.451Z,7.48
2022-12-25T01:19:20.674Z,7.50
2022-12-25T01:21:48.442Z,7.52
2022-12-25T01:24:16.191Z,7.55
2022-12-25T01:26:44.052Z,7.57
2022-12-25T01:29:13.300Z,7.60
2022-12-25T01:31:41.290Z,7.66
2022-12-25T01:34:09.194Z,7.70
2022-12-25T01:36:37.404Z,7.72
2022-12-25T01:39:06.424Z,7.75
2022-12-25T01:41:34.260Z,7.76
2022-12-25T01:44:06.473Z,7.80
2022-12-25T01:46:37.601Z,7.81
2022-12-25T01:49:10.586Z,7.85
2022-12-25T01:51:43.076Z,7.86
2022-12-25T01:54:15.229Z,7.90
2022-12-25T01:56:45.168Z,7.90
2022-12-25T01:59:17.094Z,7.91
2022-12-25T02:01:47.417Z,7.95
2022-12-25T02:04:24.652Z,7.97
2022-12-25T02:06:52.737Z,7.98
2022-12-25T02:09:20.642Z,8.00
2022-12-25T02:12:00.502Z,7.99
2022-12-25T02:14:30.380Z,8.02
2022-12-25T02:17:08.290Z,8.01
2022-12-25T02:20:04.317Z,8.02
2022-12-25T02:22:45.682Z,8.06
2022-12-25T02:25:28.774Z,8.07
2022-12-25T02:28:20.921Z,8.06
2022-12-25T02:30:55.916Z,8.08
2022-12-25T02:33:47.278Z,8.11
2022-12-25T02:36:21.874Z,8.12
2022-12-25T02:39:12.536Z,8.10
2022-12-25T02:41:44.726Z,8.09
2022-12-25T02:44:36.794Z,8.10
2022-12-25T02:47:39.878Z,8.09
2022-12-25T02:50:27.268Z,8.07
2022-12-25T02:53:16.459Z,8.08
2022-12-25T02:56:05.606Z,8.06
2022-12-25T02:58:56.050Z,8.04
2022-12-25T03:01:52.370Z,8.01
2022-12-25T03:04:42.782Z,8.00
2022-12-25T03:07:15.653Z,7.94
2022-12-25T03:10:05.891Z,7.91
2022-12-25T03:12:41.748Z,7.92
2022-12-25T03:15:29.617Z,7.94
2022-12-25T03:18:02.723Z,7.95
2022-12-25T03:20:48.889Z,7.90
2022-12-25T03:23:38.176Z,7.90
2022-12-25T03:26:24.270Z,7.90
2022-12-25T03:28:52.076Z,7.91
2022-12-25T03:31:30.010Z,7.95
2022-12-25T03:34:27.564Z,7.96
2022-12-25T03:37:20.759Z,7.98
2022-12-25T03:40:22.218Z,7.98
2022-12-25T03:43:12.697Z,8.02
2022-12-25T03:46:01.924Z,8.06
2022-12-25T03:48:50.243Z,8.08
2022-12-25T03:51:41.970Z,8.10
2022-12-25T03:54:30.210Z,8.09
2022-12-25T03:57:16.927Z,8.09
2022-12-25T04:00:02.162Z,8.07
2022-12-25T04:02:55.394Z,8.03
2022-12-25T04:05:41.018Z,7.99
2022-12-25T04:08:27.552Z,7.96
2022-12-25T04:11:12.890Z,7.91
2022-12-25T04:13:58.186Z,7.95
2022-12-25T04:16:43.518Z,7.95
2022-12-25T04:19:28.676Z,7.94
2022-12-25T04:22:13.917Z,7.96
2022-12-25T04:25:00.619Z,7.99
2022-12-25T04:27:46.096Z,8.03
2022-12-25T04:30:31.463Z,8.07
2022-12-25T04:33:16.890Z,8.06
2022-12-25T04:36:04.599Z,8.08
2022-12-25T04:38:32.691Z,8.11
2022-12-25T04:41:02.519Z,8.07
2022-12-25T04:43:30.959Z,8.08
2022-12-25T04:46:00.944Z,8.08
2022-12-25T04:48:31.179Z,8.09
2022-12-25T04:50:59.063Z,8.11
2022-12-25T04:53:26.959Z,8.11
2022-12-25T04:56:03.351Z,8.11
2022-12-25T04:58:32.846Z,8.11
2022-12-25T05:01:01.346Z,8.11
2022-12-25T05:03:29.657Z,8.13
2022-12-25T05:05:57.715Z,8.13
2022-12-25T05:08:25.883Z,8.13
2022-12-25T05:10:53.632Z,8.15
2022-12-25T05:13:22.775Z,8.17
2022-12-25T05:15:50.921Z,8.18
2022-12-25T05:18:18.789Z,8.19
2022-12-25T05:20:53.356Z,8.20
2022-12-25T05:23:21.301Z,8.20
2022-12-25T05:25:49.133Z,8.22
2022-12-25T05:28:16.993Z,8.22
2022-12-25T05:30:46.234Z,8.21
2022-12-25T05:33:14.360Z,8.24
2022-12-25T05:35:42.327Z,8.24
2022-12-25T05:38:10.129Z,8.24
2022-12-25T05:40:41.018Z,8.26
2022-12-25T05:43:09.219Z,8.27
2022-12-25T05:45:37.447Z,8.26
2022-12-25T05:48:07.054Z,8.29
2022-12-25T05:50:37.515Z,8.30
2022-12-25T05:53:08.382Z,8.28
2022-12-25T05:55:36.641Z,8.28
2022-12-25T05:58:05.502Z,8.28
2022-12-25T06:00:33.597Z,8.31
2022-12-25T06:03:01.892Z,8.30
2022-12-25T06:05:31.523Z,8.30
2022-12-25T06:07:59.340Z,8.30
2022-12-25T06:10:27.087Z,8.28
2022-12-25T06:12:55.657Z,8.28
2022-12-25T06:15:23.386Z,8.28
2022-12-25T06:17:51.149Z,8.30
2022-12-25T06:20:19.055Z,8.33
2022-12-25T06:22:48.242Z,8.32
2022-12-25T06:25:16.783Z,8.36
2022-12-25T06:27:45.162Z,8.39
2022-12-25T06:30:13.284Z,8.41
2022-12-25T06:32:41.070Z,8.40
2022-12-25T06:35:09.616Z,8.42
2022-12-25T06:37:37.491Z,8.44
2022-12-25T06:40:08.788Z,8.46
2022-12-25T06:42:36.657Z,8.47
2022-12-25T06:45:04.806Z,8.50
2022-12-25T06:47:32.743Z,8.49
2022-12-25T06:50:00.840Z,8.47
2022-12-25T06:52:28.653Z,8.49
2022-12-25T06:54:56.383Z,8.47
2022-12-25T06:57:25.628Z,8.47
2022-12-25T06:59:55.510Z,8.48
2022-12-25T07:02:25.445Z,8.50
2022-12-25T07:04:54.038Z,8.49
2022-12-25T07:07:23.678Z,8.51
2022-12-25T07:09:51.921Z,8.52
2022-12-25T07:12:23.341Z,8.52
2022-12-25T07:14:55.304Z,8.53
2022-12-25T07:17:23.791Z,8.51
2022-12-25T07:19:51.914Z,8.50
2022-12-25T07:22:19.733Z,8.49
2022-12-25T07:24:47.504Z,8.51
2022-12-25T07:27:15.269Z,8.51
2022-12-25T07:29:43.047Z,8.49
2022-12-25T07:32:12.233Z,8.49
2022-12-25T07:34:40.042Z,8.50
2022-12-25T07:37:07.946Z,8.52
2022-12-25T07:39:36.199Z,8.54
2022-12-25T07:42:04.385Z,8.56
2022-12-25T07:44:32.484Z,8.59
2022-12-25T07:47:00.297Z,8.62
2022-12-25T07:49:29.496Z,8.69
2022-12-25T07:51:57.690Z,8.73
2022-12-25T07:54:25.453Z,8.76
2022-12-25T07:56:53.555Z,8.73
2022-12-25T07:59:21.896Z,8.80
2022-12-25T08:01:50.849Z,8.79
2022-12-25T08:04:19.387Z,8.79
2022-12-25T08:06:48.561Z,8.80
2022-12-25T08:09:16.452Z,8.80
2022-12-25T08:11:47.624Z,8.77
2022-12-25T08:14:16.293Z,8.76
2022-12-25T08:16:44.519Z,8.76
2022-12-25T08:19:12.503Z,8.74
2022-12-25T08:21:40.277Z,8.77
2022-12-25T08:24:10.719Z,8.77
2022-12-25T08:26:38.600Z,8.83
2022-12-25T08:29:06.350Z,8.82
2022-12-25T08:31:37.227Z,8.84
2022-12-25T08:34:07.324Z,8.83
2022-12-25T08:36:35.362Z,8.82
2022-12-25T08:39:03.622Z,8.81
2022-12-25T08:41:36.194Z,8.80
2022-12-25T08:44:04.470Z,8.79
2022-12-25T08:46:32.396Z,8.82
2022-12-25T08:49:00.345Z,8.84
2022-12-25T08:51:28.145Z,8.86
2022-12-25T08:54:00.313Z,8.86
2022-12-25T08:56:29.243Z,8.88
2022-12-25T08:58:58.397Z,8.90
2022-12-25T09:01:26.228Z,8.92
2022-12-25T09:03:54.191Z,8.91
2022-12-25T09:06:21.971Z,8.92
2022-12-25T09:08:50.117Z,8.92
2022-12-25T09:11:20.075Z,8.93
2022-12-25T09:13:48.402Z,8.93
2022-12-25T09:16:20.563Z,8.94
2022-12-25T09:18:49.049Z,8.95
2022-12-25T09:21:17.901Z,8.95
2022-12-25T09:23:46.024Z,8.97
2022-12-25T09:26:15.803Z,8.95
2022-12-25T09:28:50.217Z,8.95
2022-12-25T09:31:21.632Z,8.95
2022-12-25T09:33:49.608Z,8.95
2022-12-25T09:36:17.449Z,8.97
2022-12-25T09:38:45.310Z,8.97
2022-12-25T09:41:18.114Z,8.97
2022-12-25T09:43:50.764Z,8.98
2022-12-25T09:46:24.439Z,8.97
2022-12-25T09:49:03.423Z,9.01
2022-12-25T09:51:35.487Z,9.03
2022-12-25T09:54:11.881Z,9.06
2022-12-25T09:56:39.613Z,9.07
2022-12-25T09:59:17.223Z,9.09
2022-12-25T10:01:59.471Z,9.12
2022-12-25T10:04:43.486Z,9.14
2022-12-25T10:07:19.366Z,9.13
2022-12-25T10:10:04.406Z,9.15
2022-12-25T10:12:43.318Z,9.16
2022-12-25T10:15:32.445Z,9.18
2022-12-25T10:18:17.398Z,9.17
2022-12-25T10:20:52.284Z,9.14
2022-12-25T10:23:23.827Z,9.14
2022-12-25T10:25:53.561Z,9.13
2022-12-25T10:28:27.402Z,9.13
2022-12-25T10:30:57.131Z,9.17
2022-12-25T10:33:26.552Z,9.14
2022-12-25T10:35:54.393Z,9.16
2022-12-25T10:38:22.505Z,9.12
2022-12-25T10:41:18.898Z,9.13
2022-12-25T10:43:50.097Z,9.13
2022-12-25T10:46:19.505Z,9.14
2022-12-25T10:48:51.539Z,9.11
2022-12-25T10:51:29.767Z,9.11
2022-12-25T10:53:58.210Z,9.09
2022-12-25T10:56:26.263Z,9.10
2022-12-25T10:59:05.788Z,9.08
2022-12-25T11:01:34.138Z,9.09
2022-12-25T11:04:03.671Z,9.11
2022-12-25T11:06:34.453Z,9.14
2022-12-25T11:09:03.881Z,9.10
2022-12-25T11:11:32.246Z,9.12
2022-12-25T11:14:03.029Z,9.14
2022-12-25T11:16:33.012Z,9.22
2022-12-25T11:19:01.710Z,9.25
2022-12-25T11:21:32.983Z,9.29
2022-12-25T11:24:02.403Z,9.34
2022-12-25T11:26:32.949Z,9.38
2022-12-25T11:29:00.960Z,9.42
2022-12-25T11:31:37.868Z,9.53
2022-12-25T11:34:11.498Z,9.60
2022-12-25T11:36:45.746Z,9.62
2022-12-25T11:39:22.909Z,9.66
2022-12-25T11:41:54.056Z,9.75
2022-12-25T11:44:31.705Z,9.76
2022-12-25T11:47:08.438Z,9.75
2022-12-25T11:49:48.714Z,9.84
2022-12-25T11:52:20.886Z,9.84
2022-12-25T11:54:55.851Z,9.88
2022-12-25T11:57:27.444Z,9.86
2022-12-25T12:00:00.861Z,9.88
2022-12-25T12:02:36.170Z,9.84
2022-12-25T12:05:12.877Z,9.85
2022-12-25T12:07:53.198Z,9.90
2022-12-25T12:10:29.296Z,9.93
2022-12-25T12:13:07.279Z,9.99
2022-12-25T12:15:43.101Z,9.98
2022-12-25T12:18:20.213Z,10.00
2022-12-25T12:20:59.196Z,10.04
2022-12-25T12:23:29.689Z,10.06
2022-12-25T12:25:58.331Z,10.08
2022-12-25T12:28:28.719Z,10.10
2022-12-25T12:31:03.147Z,10.11
2022-12-25T12:33:37.499Z,10.07
2022-12-25T12:36:06.863Z,10.08
2022-12-25T12:38:37.071Z,10.09
2022-12-25T12:41:08.482Z,10.08
2022-12-25T12:43:38.882Z,10.14
2022-12-25T12:46:15.823Z,10.16
2022-12-25T12:48:45.542Z,10.14
2022-12-25T12:51:15.420Z,10.14
2022-12-25T12:53:44.713Z,10.17
2022-12-25T12:56:16.187Z,10.18
2022-12-25T12:58:49.828Z,10.22
2022-12-25T13:01:40.223Z,10.27
2022-12-25T13:04:33.629Z,10.41
2022-12-25T13:07:12.043Z,10.51
2022-12-25T13:09:55.296Z,10.55
2022-12-25T13:12:23.819Z,10.60
2022-12-25T13:14:51.858Z,10.64
2022-12-25T13:17:23.718Z,10.67
2022-12-25T13:19:56.197Z,10.74
2022-12-25T13:22:27.107Z,10.76
2022-12-25T13:25:00.994Z,10.79
2022-12-25T13:27:31.147Z,10.79
2022-12-25T13:29:59.548Z,10.82
2022-12-25T13:32:30.661Z,10.84
2022-12-25T13:34:59.740Z,10.81
2022-12-25T13:37:29.670Z,10.84
2022-12-25T13:40:00.834Z,10.84
2022-12-25T13:42:31.308Z,10.90
2022-12-25T13:45:01.740Z,10.87
2022-12-25T13:47:32.582Z,10.90
2022-12-25T13:50:02.700Z,10.90
2022-12-25T13:52:35.088Z,10.91
2022-12-25T13:55:11.803Z,10.89
2022-12-25T13:57:41.992Z,10.86
2022-12-25T14:00:19.438Z,10.86
2022-12-25T14:02:48.024Z,10.85
2022-12-25T14:05:27.652Z,10.83
2022-12-25T14:07:57.319Z,10.87
2022-12-25T14:10:29.366Z,10.88
2022-12-25T14:13:00.730Z,10.89
2022-12-25T14:15:31.054Z,10.86
2022-12-25T14:17:59.686Z,10.89
2022-12-25T14:20:31.659Z,10.87
2022-12-25T14:23:01.136Z,10.89
2022-12-25T14:25:34.390Z,10.88
2022-12-25T14:28:08.887Z,10.86
2022-12-25T14:30:37.397Z,10.89
2022-12-25T14:33:07.622Z,10.88
2022-12-25T14:35:35.537Z,10.91
2022-12-25T14:38:03.259Z,10.88
2022-12-25T14:40:35.913Z,10.80
2022-12-25T14:43:05.581Z,10.82
2022-12-25T14:45:34.985Z,10.78
2022-12-25T14:48:19.802Z,10.80
2022-12-25T14:50:56.559Z,10.82
2022-12-25T14:53:29.261Z,10.81
2022-12-25T14:55:58.455Z,10.82
2022-12-25T14:58:29.971Z,10.85
2022-12-25T15:01:00.243Z,10.85
2022-12-25T15:03:30.576Z,10.84
2022-12-25T15:06:01.218Z,10.83
2022-12-25T15:08:30.354Z,10.79
2022-12-25T15:11:02.304Z,10.79
2022-12-25T15:13:32.423Z,10.80
2022-12-25T15:16:04.849Z,10.78
2022-12-25T15:18:37.269Z,10.75
2022-12-25T15:21:05.150Z,10.78
2022-12-25T15:23:33.023Z,10.79
2022-12-25T15:26:02.140Z,10.80
2022-12-25T15:28:29.825Z,10.82
2022-12-25T15:30:57.689Z,10.82
2022-12-25T15:33:25.438Z,10.82
2022-12-25T15:35:53.203Z,10.83
2022-12-25T15:38:20.988Z,10.87
2022-12-25T15:40:48.764Z,10.88
2022-12-25T15:43:39.857Z,10.98
2022-12-25T15:46:06.678Z,11.00
2022-12-25T15:48:34.472Z,11.03
2022-12-25T15:51:02.251Z,11.07
2022-12-25T15:53:30.072Z,11.11
2022-12-25T15:55:58.059Z,11.13
2022-12-25T15:58:27.167Z,11.15
2022-12-25T16:00:55.080Z,11.17
2022-12-25T16:03:22.858Z,11.17
2022-12-25T16:05:51.178Z,11.18
2022-12-25T16:08:18.927Z,11.16
2022-12-25T16:10:46.792Z,11.19
2022-12-25T16:13:14.517Z,11.22
2022-12-25T16:15:44.892Z,11.27
2022-12-25T16:18:12.736Z,11.25
2022-12-25T16:20:41.112Z,11.27
2022-12-25T16:23:08.900Z,11.23
2022-12-25T16:25:36.612Z,11.23
2022-12-25T16:28:06.017Z,11.26
2022-12-25T16:30:33.906Z,11.26
2022-12-25T16:33:03.473Z,11.25
2022-12-25T16:35:31.629Z,11.27
2022-12-25T16:37:59.690Z,11.25
2022-12-25T16:40:27.685Z,11.29
2022-12-25T16:42:56.220Z,11.30
2022-12-25T16:45:24.193Z,11.28
2022-12-25T16:47:51.915Z,11.31
2022-12-25T16:50:22.330Z,11.30
2022-12-25T16:52:50.117Z,11.31
2022-12-25T16:55:18.050Z,11.26
2022-12-25T16:57:47.736Z,11.30
2022-12-25T17:00:16.358Z,11.29
2022-12-25T17:02:44.652Z,11.36
2022-12-25T17:05:12.536Z,11.40
2022-12-25T17:07:42.963Z,11.52
2022-12-25T17:10:12.675Z,11.53
2022-12-25T17:12:40.527Z,11.57
2022-12-25T17:15:09.302Z,11.62
2022-12-25T17:17:37.081Z,11.57
2022-12-25T17:20:05.799Z,11.55
2022-12-25T17:22:33.633Z,11.54
2022-12-25T17:25:02.741Z,11.51
2022-12-25T17:27:30.706Z,11.49
2022-12-25T17:29:58.423Z,11.49
2022-12-25T17:32:26.200Z,11.52
2022-12-25T17:34:53.962Z,11.55
2022-12-25T17:37:21.687Z,11.52
2022-12-25T17:39:49.449Z,11.52
2022-12-25T17:42:18.533Z,11.47
2022-12-25T17:44:47.195Z,11.46
2022-12-25T17:47:14.933Z,11.50
2022-12-25T17:49:42.794Z,11.54
2022-12-25T17:52:10.583Z,11.52
2022-12-25T17:54:39.124Z,11.68
2022-12-25T17:57:07.020Z,11.67
2022-12-25T17:59:36.137Z,11.59
2022-12-25T18:02:04.036Z,11.56
2022-12-25T18:04:31.852Z,11.51
2022-12-25T18:06:59.559Z,11.51
2022-12-25T18:09:27.747Z,11.54
2022-12-25T18:11:56.090Z,11.51
2022-12-25T18:14:23.823Z,11.48
2022-12-25T18:16:53.512Z,11.45
2022-12-25T18:19:21.392Z,11.60
2022-12-25T18:21:49.328Z,11.63
2022-12-25T18:24:17.128Z,11.67
2022-12-25T18:26:45.659Z,11.77
2022-12-25T18:29:13.412Z,12.10
2022-12-25T18:31:43.410Z,12.20
2022-12-25T18:34:12.533Z,12.28
2022-12-25T18:36:40.531Z,12.23
2022-12-25T18:39:08.290Z,12.38
2022-12-25T18:41:56.044Z,12.26
2022-12-25T18:44:23.822Z,12.29
2022-12-25T18:46:51.634Z,12.30
2022-12-25T18:49:20.727Z,12.29
2022-12-25T18:51:50.484Z,12.28
2022-12-25T18:54:19.219Z,12.44
2022-12-25T18:56:52.121Z,12.38
2022-12-25T18:59:22.223Z,12.31
2022-12-25T19:01:50.161Z,12.28
2022-12-25T19:04:18.370Z,12.31
2022-12-25T19:06:49.547Z,12.32
2022-12-25T19:09:17.337Z,12.32
2022-12-25T19:11:46.761Z,12.35
2022-12-25T19:14:15.780Z,12.43
2022-12-25T19:16:43.715Z,12.36
2022-12-25T19:19:11.483Z,12.37
2022-12-25T19:21:39.264Z,12.40
2022-12-25T19:24:08.702Z,12.39
2022-12-25T19:26:37.562Z,12.36
2022-12-25T19:29:05.872Z,12.31
2022-12-25T19:31:33.606Z,12.37
2022-12-25T19:34:01.401Z,12.26
2022-12-25T19:36:29.143Z,12.22
2022-12-25T19:38:56.996Z,12.28
2022-12-25T19:41:26.336Z,12.24
2022-12-25T19:43:54.071Z,12.24
2022-12-25T19:46:25.461Z,12.15
2022-12-25T19:48:53.754Z,12.10
2022-12-25T19:51:24.328Z,12.08
2022-12-25T19:53:52.784Z,12.04
2022-12-25T19:56:20.864Z,11.95
2022-12-25T19:58:50.042Z,11.90
2022-12-25T20:01:20.831Z,11.81
2022-12-25T20:03:49.792Z,11.82
2022-12-25T20:06:24.775Z,11.78
2022-12-25T20:08:53.838Z,11.79
2022-12-25T20:11:22.328Z,11.77
2022-12-25T20:13:51.654Z,11.73
2022-12-25T20:16:19.496Z,11.71
2022-12-25T20:18:47.251Z,11.68
2022-12-25T20:21:17.739Z,11.65
2022-12-25T20:23:47.132Z,11.57
2022-12-25T20:26:17.599Z,11.52
2022-12-25T20:28:46.208Z,11.51
2022-12-25T20:31:17.685Z,11.48
2022-12-25T20:33:46.301Z,11.42
2022-12-25T20:36:14.241Z,11.38
2022-12-25T20:38:42.393Z,11.32
2022-12-25T20:41:29.346Z,11.27
2022-12-25T20:43:58.235Z,11.20
2022-12-25T20:46:28.118Z,11.24
2022-12-25T20:48:55.947Z,11.19
2022-12-25T20:51:26.058Z,11.20
2022-12-25T20:53:54.119Z,11.19
2022-12-25T20:56:23.691Z,11.18
2022-12-25T20:58:55.081Z,11.08
2022-12-25T21:01:23.075Z,11.08
2022-12-25T21:03:52.732Z,11.10
2022-12-25T21:06:20.638Z,11.10
2022-12-25T21:08:48.904Z,11.07
2022-12-25T21:11:17.928Z,11.05
2022-12-25T21:13:46.996Z,11.06
2022-12-25T21:16:18.354Z,10.97
2022-12-25T21:18:46.781Z,10.91
2022-12-25T21:21:16.826Z,10.91
2022-12-25T21:23:45.508Z,10.87
2022-12-25T21:26:16.705Z,10.88
2022-12-25T21:28:44.429Z,10.87
2022-12-25T21:31:12.684Z,10.86
2022-12-25T21:33:51.765Z,10.82
2022-12-25T21:36:24.067Z,10.85
2022-12-25T21:38:58.247Z,10.91
2022-12-25T21:41:27.143Z,10.93
2022-12-25T21:43:55.225Z,10.95
2022-12-25T21:46:23.148Z,11.01
2022-12-25T21:48:51.649Z,11.10
2022-12-25T21:51:40.893Z,11.18
2022-12-25T21:54:09.018Z,11.20
2022-12-25T21:56:43.452Z,11.21
2022-12-25T21:59:14.377Z,11.21
2022-12-25T22:01:42.312Z,11.26
2022-12-25T22:04:12.319Z,11.34
2022-12-25T22:06:59.284Z,11.37
2022-12-25T22:09:27.603Z,11.39
2022-12-25T22:12:13.015Z,11.43
2022-12-25T22:14:54.681Z,11.45
2022-12-25T22:17:42.008Z,11.49
2022-12-25T22:20:11.947Z,11.62
2022-12-25T22:22:41.163Z,11.65
2022-12-25T22:25:10.685Z,11.66
2022-12-25T22:27:39.618Z,11.68
2022-12-25T22:30:10.234Z,11.74
2022-12-25T22:32:38.153Z,11.77
2022-12-25T22:35:07.199Z,11.80
2022-12-25T22:37:35.900Z,11.87
2022-12-25T22:40:06.511Z,11.84
2022-12-25T22:42:35.032Z,11.82
2022-12-25T22:45:03.327Z,11.89
2022-12-25T22:47:31.238Z,11.92
2022-12-25T22:49:59.032Z,11.99
2022-12-25T22:52:27.347Z,11.97
2022-12-25T22:54:55.090Z,11.97
2022-12-25T22:57:24.177Z,11.97
2022-12-25T22:59:53.053Z,12.05
2022-12-25T23:02:21.399Z,12.08
2022-12-25T23:04:49.427Z,12.07
2022-12-25T23:07:17.569Z,12.10
2022-12-25T23:09:46.060Z,12.15
2022-12-25T23:12:27.737Z,12.19
2022-12-25T23:14:56.914Z,12.20
2022-12-25T23:17:42.349Z,12.23
2022-12-25T23:20:29.202Z,12.15
2022-12-25T23:23:14.594Z,12.14
2022-12-25T23:26:00.070Z,12.13
2022-12-25T23:28:46.089Z,12.09
2022-12-25T23:31:15.332Z,12.13
2022-12-25T23:33:43.123Z,12.16
2022-12-25T23:36:10.939Z,12.17
2022-12-25T23:38:38.749Z,12.24
2022-12-25T23:41:06.701Z,12.17
2022-12-25T23:43:34.530Z,12.16
2022-12-25T23:46:02.374Z,12.09
2022-12-25T23:48:31.522Z,12.07
2022-12-25T23:51:03.325Z,12.07
2022-12-25T23:53:31.075Z,12.11
2022-12-25T23:55:59.583Z,12.04
2022-12-25T23:58:29.009Z,12.07
